Time;durP1;ratioP1;P1;durP2;ratioP2;P2;SDS_P1;SDS_P2;PMS_P1;PMS_P2;Temp;Humidity;BMP_temperature;BMP_pressure;BME280_temperature;BME280_humidity;BME280_pressure;Samples;Min_cycle;Max_cycle;Signal;HPM_P1;HPM_P2
2022/11/10 00:00:07;;;;;;;7.20;4.10;;;;;;;2.95;84.94;96102.83;1726019;82;21073;-74
2022/11/10 00:02:54;;;;;;;9.43;5.07;;;;;;;2.98;84.16;96102.88;1731447;82;21038;-72
2022/11/10 00:05:39;;;;;;;28.90;13.87;;;;;;;2.88;83.31;96108.77;1722360;82;21061;-72
2022/11/10 00:08:25;;;;;;;26.27;13.03;;;;;;;2.73;84.09;96108.47;1726847;82;21059;-73
2022/11/10 00:11:10;;;;;;;8.77;5.30;;;;;;;2.65;84.16;96108.32;1734181;82;21050;-73
2022/11/10 00:17:03;;;;;;;7.08;5.08;;;;;;;2.76;84.70;96112.44;1716606;82;21176;-73
2022/11/10 00:19:48;;;;;;;9.13;5.33;;;;;;;2.80;84.80;96107.75;1733378;81;21079;-74
2022/11/10 00:22:35;;;;;;;5.77;3.93;;;;;;;2.90;85.11;96107.08;1742899;82;21501;-74
2022/11/10 00:25:22;;;;;;;6.37;3.70;;;;;;;2.81;84.90;96099.07;1720638;81;21047;-73
2022/11/10 00:28:07;;;;;;;8.50;4.67;;;;;;;2.69;84.54;96093.19;1725032;82;21022;-73
2022/11/10 00:30:53;;;;;;;12.13;5.40;;;;;;;2.55;84.98;96090.32;1726513;81;21034;-73
2022/11/10 00:33:41;;;;;;;7.00;5.03;;;;;;;2.57;85.52;96089.03;1725018;82;21046;-73
2022/11/10 00:36:26;;;;;;;8.63;5.33;;;;;;;2.59;85.60;96089.94;1734002;82;21536;-73
2022/11/10 00:39:12;;;;;;;6.70;3.93;;;;;;;2.58;85.54;96083.86;1727527;82;20994;-73
2022/11/10 00:41:56;;;;;;;7.93;4.00;;;;;;;2.60;85.64;96085.20;1718624;82;21469;-73
2022/11/10 00:44:42;;;;;;;6.17;4.23;;;;;;;2.60;85.10;96089.11;1720563;81;21007;-73
2022/11/10 00:47:36;;;;;;;5.33;3.57;;;;;;;2.78;85.79;96076.44;1802784;79;23040;-71
2022/11/10 00:50:21;;;;;;;5.10;3.57;;;;;;;2.78;85.18;96080.34;1762697;80;21041;-73
2022/11/10 00:53:06;;;;;;;8.13;4.63;;;;;;;2.69;84.54;96082.77;1729117;83;21592;-73
2022/11/10 00:55:51;;;;;;;11.97;5.83;;;;;;;2.65;84.91;96077.06;1729312;83;21018;-73
2022/11/10 00:58:37;;;;;;;5.63;3.90;;;;;;;2.70;85.02;96083.67;1729220;83;21090;-73
2022/11/10 01:01:24;;;;;;;10.40;3.60;;;;;;;2.71;85.80;96082.38;1729231;83;21014;-73
2022/11/10 01:04:09;;;;;;;4.77;3.27;;;;;;;2.73;85.51;96083.72;1729207;83;21014;-73
2022/11/10 01:06:54;;;;;;;3.20;2.60;;;;;;;2.71;85.25;96084.11;1729093;83;21521;-73
2022/11/10 01:09:39;;;;;;;5.10;3.57;;;;;;;2.66;85.03;96081.41;1729122;83;20991;-73
2022/11/10 01:12:30;;;;;;;6.00;3.97;;;;;;;2.73;85.74;96081.12;1729141;83;21484;-73
2022/11/10 01:15:15;;;;;;;7.47;4.13;;;;;;;2.83;85.65;96078.27;1729205;83;21537;-73
2022/11/10 01:18:00;;;;;;;9.50;4.67;;;;;;;2.75;85.16;96082.03;1729285;83;21457;-73
2022/11/10 01:20:51;;;;;;;9.03;4.73;;;;;;;2.66;85.66;96083.14;1729293;83;21557;-71
2022/11/10 01:23:36;;;;;;;11.00;6.67;;;;;;;2.67;85.59;96084.88;1728977;83;21796;-73
2022/11/10 01:26:22;;;;;;;33.60;15.30;;;;;;;2.59;85.40;96084.73;1729046;83;21082;-73
2022/11/10 01:29:07;;;;;;;20.87;10.70;;;;;;;2.52;85.38;96082.84;1715564;84;21091;-73
2022/11/10 01:31:53;;;;;;;11.17;6.67;;;;;;;2.49;85.36;96082.80;1726818;83;21023;-73
2022/11/10 01:34:38;;;;;;;6.40;4.17;;;;;;;2.54;86.43;96096.78;1726626;83;21544;-73
2022/11/10 01:37:24;;;;;;;13.00;6.20;;;;;;;2.53;85.68;96089.83;1726736;83;21059;-74
2022/11/10 01:40:10;;;;;;;9.87;6.20;;;;;;;2.51;85.85;96091.52;1726513;83;20999;-73
2022/11/10 01:42:57;;;;;;;8.13;5.07;;;;;;;2.49;85.94;96086.70;1726809;83;21477;-73
2022/11/10 01:46:02;;;;;;;6.97;4.30;;;;;;;2.55;85.72;96089.45;1725067;83;21043;-73
2022/11/10 01:49:00;;;;;;;7.93;4.63;;;;;;;2.62;85.69;96084.82;1713532;84;21090;-73
2022/11/10 01:51:59;;;;;;;8.30;4.07;;;;;;;2.71;85.86;96089.32;1713422;84;21027;-74
2022/11/10 01:54:48;;;;;;;18.47;10.57;;;;;;;2.85;86.56;96086.56;1713410;83;21514;-73
2022/11/10 01:57:35;;;;;;;21.20;10.90;;;;;;;2.92;85.94;96074.08;1713304;83;21087;-73
2022/11/10 02:00:21;;;;;;;21.60;11.27;;;;;;;2.93;85.44;96082.80;1713083;83;21144;-75
2022/11/10 02:03:20;;;;;;;19.27;9.53;;;;;;;3.04;86.23;96079.95;1713009;83;21513;-73
2022/11/10 02:06:07;;;;;;;15.13;7.80;;;;;;;3.10;86.38;96081.78;1713067;84;21122;-74
2022/11/10 02:08:53;;;;;;;17.07;8.67;;;;;;;3.18;86.99;96081.09;1712768;83;21028;-74
2022/11/10 02:11:41;;;;;;;19.43;9.10;;;;;;;3.32;87.17;96075.22;1713194;84;21605;-74
2022/11/10 02:14:26;;;;;;;18.63;9.67;;;;;;;3.39;86.81;96078.39;1713035;83;21024;-74
2022/11/10 02:17:13;;;;;;;16.10;9.30;;;;;;;3.50;86.94;96083.34;1712989;84;21498;-74
2022/11/10 02:20:03;;;;;;;17.37;8.57;;;;;;;3.62;86.53;96080.07;1712994;83;21040;-74
2022/11/10 02:22:49;;;;;;;15.40;8.40;;;;;;;3.79;86.60;96082.52;1712768;83;21621;-74
2022/11/10 02:25:35;;;;;;;16.60;7.83;;;;;;;3.89;86.35;96086.16;1712946;83;21015;-74
2022/11/10 02:28:20;;;;;;;13.10;8.40;;;;;;;4.00;85.84;96081.08;1713088;83;21044;-71
2022/11/10 02:31:08;;;;;;;14.57;8.83;;;;;;;4.01;85.49;96086.34;1712985;84;21088;-72
2022/11/10 02:33:52;;;;;;;12.20;7.80;;;;;;;4.03;84.89;96091.56;1713081;83;21028;-72
2022/11/10 02:36:37;;;;;;;11.77;7.90;;;;;;;4.01;84.54;96090.69;1712993;83;21036;-74
2022/11/10 02:39:22;;;;;;;14.50;7.90;;;;;;;4.01;84.58;96090.25;1712943;84;21574;-74
2022/11/10 02:42:09;;;;;;;13.37;8.13;;;;;;;4.00;84.45;96085.00;1712974;83;21047;-74
2022/11/10 02:44:55;;;;;;;11.20;7.53;;;;;;;3.95;84.30;96086.23;1712952;83;21075;-74
2022/11/10 02:47:40;;;;;;;10.60;7.57;;;;;;;3.95;84.40;96089.28;1717329;83;21558;-72
2022/11/10 02:50:25;;;;;;;14.80;8.73;;;;;;;3.95;84.49;96092.76;1718461;83;21039;-72
2022/11/10 02:53:10;;;;;;;12.30;8.20;;;;;;;3.95;84.34;96086.67;1718433;83;21533;-74
2022/11/10 02:55:55;;;;;;;12.20;7.93;;;;;;;3.93;84.44;96086.66;1718574;83;21143;-74
2022/11/10 02:58:40;;;;;;;13.13;9.10;;;;;;;3.94;84.71;96094.06;1718580;83;21035;-74
2022/11/10 03:01:26;;;;;;;12.57;7.80;;;;;;;3.93;84.71;96098.41;1718953;83;21003;-74
2022/11/10 03:04:12;;;;;;;10.70;7.23;;;;;;;3.93;85.62;96100.12;1718462;83;21511;-74
2022/11/10 03:06:57;;;;;;;15.90;8.30;;;;;;;3.96;85.34;96101.06;1718526;83;21123;-73
2022/11/10 03:09:42;;;;;;;14.37;9.00;;;;;;;3.99;85.89;96098.92;1718607;83;21035;-73
2022/11/10 03:12:27;;;;;;;14.03;8.67;;;;;;;3.99;85.88;96100.23;1718414;83;21008;-73
2022/11/10 03:15:13;;;;;;;10.30;7.53;;;;;;;4.00;85.74;96095.01;1718554;83;21016;-73
2022/11/10 03:18:02;;;;;;;14.53;8.63;;;;;;;4.03;86.51;96095.08;1718463;83;21474;-73
2022/11/10 03:20:48;;;;;;;11.83;8.60;;;;;;;4.08;86.27;96101.65;1718522;83;21127;-73
2022/11/10 03:23:35;;;;;;;14.63;9.43;;;;;;;4.08;85.81;96102.95;1718524;83;21079;-73
2022/11/10 03:26:21;;;;;;;14.83;8.83;;;;;;;4.06;85.81;96106.87;1718433;83;21653;-73
2022/11/10 03:29:06;;;;;;;13.27;7.40;;;;;;;4.08;85.93;96109.08;1718537;83;21035;-73
2022/11/10 03:31:51;;;;;;;12.67;8.73;;;;;;;4.17;85.78;96108.32;1718414;83;21078;-73
2022/11/10 03:34:36;;;;;;;12.67;8.30;;;;;;;4.25;86.36;96101.47;1718538;83;21531;-73
2022/11/10 03:37:22;;;;;;;12.63;7.70;;;;;;;4.28;86.19;96101.53;1718455;83;21099;-74
2022/11/10 03:40:08;;;;;;;11.33;7.43;;;;;;;4.37;86.14;96107.30;1716394;83;21074;-73
2022/11/10 03:42:53;;;;;;;11.80;7.77;;;;;;;4.43;86.29;96104.75;1718620;83;21091;-73
2022/11/10 03:45:38;;;;;;;11.20;7.60;;;;;;;4.52;85.80;96098.35;1718633;83;21039;-74
2022/11/10 03:48:24;;;;;;;10.27;6.40;;;;;;;4.61;85.77;96095.00;1713164;83;21494;-73
2022/11/10 03:51:08;;;;;;;10.97;6.93;;;;;;;4.64;86.10;96095.46;1713067;83;21015;-73
2022/11/10 03:53:54;;;;;;;10.30;6.57;;;;;;;4.78;86.59;96097.79;1712955;83;20992;-73
2022/11/10 03:56:38;;;;;;;74.57;38.60;;;;;;;4.89;86.28;96094.89;1713062;83;21047;-73
2022/11/10 03:59:24;;;;;;;58.77;30.10;;;;;;;4.99;86.23;96102.41;1712917;84;21001;-73
2022/11/10 04:02:09;;;;;;;24.07;13.37;;;;;;;5.10;86.25;96094.23;1713122;83;21092;-73
2022/11/10 04:11:05;;;;;;;19.67;12.80;;;;;;;5.30;85.28;96090.52;1712861;83;21594;-74
2022/11/10 04:16:54;;;;;;;11.83;6.03;;;;;;;5.42;84.46;96097.62;1713193;84;21012;-73
2022/11/10 04:19:39;;;;;;;12.37;6.60;;;;;;;5.45;84.93;96099.39;1712998;83;21020;-73
2022/11/10 04:25:27;;;;;;;13.40;9.23;;;;;;;5.59;85.32;96105.20;1713099;83;21075;-73
2022/11/10 04:28:13;;;;;;;12.57;8.17;;;;;;;5.56;84.51;96106.45;1713055;84;21063;-73
2022/11/10 04:30:57;;;;;;;12.83;7.40;;;;;;;5.47;84.38;96111.63;1712882;84;21128;-73
2022/11/10 04:33:44;;;;;;;13.83;7.40;;;;;;;5.41;84.47;96109.80;1713103;83;21495;-73
2022/11/10 04:36:32;;;;;;;10.57;6.63;;;;;;;5.38;84.42;96121.55;1712762;84;21092;-73
2022/11/10 04:39:17;;;;;;;10.47;7.33;;;;;;;5.27;83.90;96115.79;1712893;83;21565;-73
2022/11/10 04:42:02;;;;;;;10.90;7.10;;;;;;;5.17;84.00;96126.14;1712823;83;21559;-73
2022/11/10 04:44:47;;;;;;;10.37;7.80;;;;;;;5.16;84.23;96120.45;1713104;83;21342;-73
2022/11/10 04:47:32;;;;;;;12.50;8.40;;;;;;;5.14;85.15;96123.50;1712751;83;21108;-73
2022/11/10 04:50:17;;;;;;;10.00;6.97;;;;;;;5.11;84.76;96132.59;1713148;83;21039;-73
2022/11/10 04:53:03;;;;;;;14.50;8.67;;;;;;;5.06;84.72;96132.98;1712771;84;21088;-74
2022/11/10 04:55:48;;;;;;;15.90;9.13;;;;;;;4.98;84.55;96124.17;1713000;83;21035;-74
2022/11/10 04:58:33;;;;;;;23.80;15.17;;;;;;;4.98;84.67;96131.58;1712953;83;21104;-73
2022/11/10 05:01:22;;;;;;;22.83;14.23;;;;;;;4.99;85.35;96138.59;1713085;83;21514;-73
2022/11/10 05:04:07;;;;;;;14.23;10.37;;;;;;;4.95;85.68;96138.09;1712898;83;21526;-69
2022/11/10 05:06:52;;;;;;;11.97;8.40;;;;;;;4.95;85.61;96128.07;1713182;83;21043;-72
2022/11/10 05:09:37;;;;;;;13.20;8.90;;;;;;;4.98;85.87;96123.73;1712775;84;21116;-72
2022/11/10 05:12:22;;;;;;;13.10;8.00;;;;;;;5.03;85.39;96132.95;1713103;83;21016;-72
2022/11/10 05:15:09;;;;;;;12.20;8.30;;;;;;;5.07;85.56;96125.59;1712862;83;21139;-72
2022/11/10 05:17:54;;;;;;;15.30;11.50;;;;;;;5.19;85.81;96129.66;1712896;83;21486;-71
2022/11/10 05:20:39;;;;;;;13.40;8.20;;;;;;;5.25;85.28;96127.53;1712979;83;21000;-71
2022/11/10 05:23:37;;;;;;;12.53;7.93;;;;;;;5.31;85.57;96130.20;1712991;83;21078;-72
2022/11/10 05:26:22;;;;;;;12.80;8.50;;;;;;;5.39;85.34;96131.17;1712822;84;21078;-71
2022/11/10 05:29:07;;;;;;;15.63;8.80;;;;;;;5.52;85.48;96130.86;1713081;84;21055;-72
2022/11/10 05:31:53;;;;;;;13.53;8.50;;;;;;;5.59;84.44;96123.52;1712901;83;21103;-71
2022/11/10 05:34:38;;;;;;;13.33;8.80;;;;;;;5.62;84.20;96127.47;1713223;83;21059;-71
2022/11/10 05:37:23;;;;;;;14.97;9.53;;;;;;;5.61;84.40;96136.60;1713008;83;21080;-71
2022/11/10 05:40:09;;;;;;;16.87;10.00;;;;;;;5.57;83.85;96137.45;1713022;83;21169;-71
2022/11/10 05:42:55;;;;;;;15.07;10.43;;;;;;;5.51;84.20;96136.07;1713229;83;21028;-71
2022/11/10 05:45:40;;;;;;;16.80;9.93;;;;;;;5.56;84.66;96139.17;1712928;83;21108;-72
2022/11/10 05:48:25;;;;;;;18.17;12.97;;;;;;;5.59;84.55;96144.87;1716672;83;21050;-71
2022/11/10 05:51:09;;;;;;;16.07;11.50;;;;;;;5.53;83.97;96148.75;1718683;83;21112;-71
2022/11/10 05:53:55;;;;;;;13.53;9.17;;;;;;;5.51;84.19;96152.64;1718457;83;21031;-71
2022/11/10 05:56:39;;;;;;;18.13;13.67;;;;;;;5.45;83.74;96157.84;1717864;83;21032;-75
2022/11/10 05:59:24;;;;;;;17.77;11.30;;;;;;;5.34;83.82;96159.04;1717520;83;21084;-70
2022/11/10 06:02:10;;;;;;;20.97;13.97;;;;;;;5.33;84.27;96162.50;1716077;83;20970;-74
2022/11/10 06:04:55;;;;;;;43.93;29.07;;;;;;;5.29;85.29;96162.44;1709216;83;21081;-71
2022/11/10 06:07:40;;;;;;;48.77;34.10;;;;;;;5.28;85.40;96162.88;1708317;83;21499;-65
2022/11/10 06:10:26;;;;;;;15.87;10.57;;;;;;;5.28;85.53;96170.73;1708196;84;21057;-67
2022/11/10 06:13:12;;;;;;;17.27;11.53;;;;;;;5.29;85.41;96172.50;1707752;84;21077;-66
2022/11/10 06:15:57;;;;;;;16.40;10.50;;;;;;;5.30;85.48;96177.30;1708410;83;21080;-66
2022/11/10 06:18:42;;;;;;;16.70;11.13;;;;;;;5.33;85.40;96183.87;1708705;84;21472;-68
2022/11/10 06:21:27;;;;;;;22.93;13.37;;;;;;;5.33;85.38;96181.25;1709012;83;21050;-66
2022/11/10 06:24:12;;;;;;;20.67;12.20;;;;;;;5.35;85.49;96183.02;1709304;83;21018;-68
2022/11/10 06:26:57;;;;;;;16.83;10.97;;;;;;;5.31;85.85;96194.30;1706417;83;21575;-67
2022/11/10 06:29:42;;;;;;;13.23;9.87;;;;;;;5.30;85.78;96195.17;1706328;84;21519;-68
2022/11/10 06:32:28;;;;;;;18.40;10.87;;;;;;;5.32;85.77;96196.08;1706117;84;21030;-69
2022/11/10 06:35:14;;;;;;;15.30;9.87;;;;;;;5.36;85.73;96197.84;1706337;84;21061;-72
2022/11/10 06:38:03;;;;;;;25.33;14.47;;;;;;;5.40;85.61;96206.20;1706177;84;21594;-68
2022/11/10 06:40:49;;;;;;;19.07;14.57;;;;;;;5.41;85.37;96206.63;1706311;84;21061;-67
2022/11/10 06:43:34;;;;;;;36.57;20.53;;;;;;;5.46;85.78;96205.37;1705800;84;21559;-70
2022/11/10 06:46:19;;;;;;;32.63;19.93;;;;;;;5.51;85.89;96208.05;1705518;83;21556;-70
2022/11/10 06:49:04;;;;;;;28.80;15.80;;;;;;;5.60;86.16;96205.55;1721146;83;21110;-70
2022/11/10 06:51:48;;;;;;;21.33;15.70;;;;;;;5.69;86.46;96196.45;1725526;83;21382;-71
2022/11/10 06:54:34;;;;;;;18.93;12.63;;;;;;;5.81;86.64;96207.48;1725441;83;21069;-70
2022/11/10 06:57:19;;;;;;;18.17;12.40;;;;;;;5.84;86.68;96199.22;1724857;83;21092;-67
2022/11/10 07:00:05;;;;;;;18.20;12.67;;;;;;;5.98;86.85;96198.52;1726078;83;21026;-65
2022/11/10 07:03:06;;;;;;;18.40;13.07;;;;;;;6.13;86.49;96198.66;1725785;83;21045;-73
2022/11/10 07:05:51;;;;;;;19.73;12.77;;;;;;;6.18;86.20;96202.63;1725635;83;21690;-72
2022/11/10 07:08:37;;;;;;;14.77;10.47;;;;;;;6.31;85.89;96201.84;1725651;83;21026;-69
2022/11/10 07:11:22;;;;;;;14.17;10.57;;;;;;;6.39;85.86;96199.28;1725662;83;21029;-72
2022/11/10 07:14:07;;;;;;;15.97;9.87;;;;;;;6.48;85.73;96209.41;1725634;83;21472;-71
2022/11/10 07:16:52;;;;;;;21.80;12.60;;;;;;;6.57;85.40;96206.39;1724630;83;21073;-70
2022/11/10 07:19:37;;;;;;;22.57;14.50;;;;;;;6.60;84.64;96213.87;1725036;83;21033;-70
2022/11/10 07:22:23;;;;;;;25.80;16.40;;;;;;;6.57;84.56;96214.26;1725928;83;21572;-69
2022/11/10 07:25:09;;;;;;;19.10;13.77;;;;;;;6.63;84.90;96216.50;1725343;83;21069;-70
2022/11/10 07:27:59;;;;;;;27.30;17.77;;;;;;;6.71;84.42;96220.48;1724732;83;21094;-69
2022/11/10 07:30:44;;;;;;;34.10;25.63;;;;;;;6.70;84.39;96222.23;1706280;84;21052;-67
2022/11/10 07:33:30;;;;;;;19.83;13.00;;;;;;;6.78;84.17;96229.25;1750541;82;22216;-68
2022/11/10 07:36:15;;;;;;;21.60;15.23;;;;;;;6.75;83.47;96227.92;1750093;82;21049;-75
2022/11/10 07:39:00;;;;;;;17.03;10.83;;;;;;;6.65;82.96;96225.27;1750528;82;21142;-69
2022/11/10 07:41:45;;;;;;;16.70;12.90;;;;;;;6.69;83.55;96235.33;1750615;82;21089;-72
2022/11/10 07:44:30;;;;;;;21.13;13.73;;;;;;;6.72;83.33;96237.96;1750513;82;21050;-70
2022/11/10 07:47:16;;;;;;;28.07;19.87;;;;;;;6.69;82.96;96239.26;1749532;82;21026;-72
2022/11/10 07:50:01;;;;;;;22.73;14.07;;;;;;;6.66;83.06;96237.94;1750991;82;21469;-69
2022/11/10 07:52:46;;;;;;;21.00;13.27;;;;;;;6.63;82.95;96238.79;1751029;82;21057;-79
2022/11/10 07:55:32;;;;;;;18.73;12.40;;;;;;;6.65;83.42;96242.72;1751844;82;21007;-72
2022/11/10 07:58:18;;;;;;;19.20;12.67;;;;;;;6.64;83.31;96251.02;1748704;81;21057;-73
2022/11/10 08:01:03;;;;;;;19.43;12.80;;;;;;;6.61;83.18;96254.06;1740000;82;21028;-77
2022/11/10 08:03:48;;;;;;;19.90;12.23;;;;;;;6.63;83.45;96250.59;1740301;82;21030;-71
2022/11/10 08:06:35;;;;;;;17.33;12.37;;;;;;;6.70;83.61;96250.18;1739083;82;21570;-72
2022/11/10 08:09:20;;;;;;;19.57;12.33;;;;;;;6.75;83.53;96262.02;1740136;82;21080;-70
2022/11/10 08:12:05;;;;;;;17.87;13.10;;;;;;;6.77;83.49;96263.78;1740750;82;21487;-69
2022/11/10 08:14:50;;;;;;;21.43;15.33;;;;;;;6.77;83.40;96258.98;1739866;82;21029;-69
2022/11/10 08:17:36;;;;;;;26.30;14.97;;;;;;;6.79;83.50;96271.67;1739425;82;21065;-69
2022/11/10 08:20:21;;;;;;;23.53;14.90;;;;;;;6.77;83.71;96266.84;1739649;82;21060;-68
2022/11/10 08:23:07;;;;;;;17.97;12.10;;;;;;;6.77;83.92;96269.03;1740550;82;21061;-74
2022/11/10 08:25:52;;;;;;;18.73;12.03;;;;;;;6.86;83.81;96267.79;1738775;82;21434;-68
2022/11/10 08:28:36;;;;;;;19.10;12.00;;;;;;;6.92;83.64;96264.33;1739687;82;21009;-68
2022/11/10 08:31:21;;;;;;;19.00;11.47;;;;;;;6.98;83.71;96270.94;1740209;82;21515;-68
2022/11/10 08:34:08;;;;;;;19.27;11.83;;;;;;;7.07;83.66;96273.59;1739659;82;21529;-72
2022/11/10 08:36:53;;;;;;;22.10;12.30;;;;;;;7.13;83.94;96274.06;1739704;82;21088;-67
2022/11/10 08:39:39;;;;;;;24.40;12.93;;;;;;;7.25;83.75;96278.06;1739701;82;21132;-68
2022/11/10 08:42:24;;;;;;;21.73;13.77;;;;;;;7.38;83.90;96280.31;1740136;82;21036;-67
2022/11/10 08:45:09;;;;;;;18.30;12.77;;;;;;;7.45;83.16;96275.98;1739447;82;21139;-70
2022/11/10 08:48:01;;;;;;;17.80;12.00;;;;;;;7.43;82.80;96273.78;1738457;82;21172;-76
2022/11/10 08:50:48;;;;;;;20.33;12.90;;;;;;;7.48;83.12;96278.61;1747135;82;21484;-68
2022/11/10 08:53:33;;;;;;;20.80;12.10;;;;;;;7.60;83.50;96272.11;1746903;82;21109;-70
2022/11/10 08:56:18;;;;;;;19.33;12.33;;;;;;;7.70;83.53;96271.27;1745928;82;21053;-76
2022/11/10 08:59:03;;;;;;;17.47;12.43;;;;;;;7.78;83.14;96273.47;1746839;82;21072;-72
2022/11/10 09:01:48;;;;;;;36.70;23.77;;;;;;;7.85;82.14;96271.75;1746230;82;21087;-76
2022/11/10 09:04:33;;;;;;;45.40;25.03;;;;;;;7.83;82.04;96280.50;1747109;82;21580;-75
2022/11/10 09:07:18;;;;;;;39.97;21.93;;;;;;;7.84;82.30;96286.19;1746405;82;21595;-74
2022/11/10 09:10:04;;;;;;;31.60;19.93;;;;;;;7.92;82.56;96268.72;1747338;82;20973;-76
2022/11/10 09:12:49;;;;;;;31.00;16.90;;;;;;;8.03;82.67;96269.16;1746848;82;21001;-73
2022/11/10 09:15:35;;;;;;;31.10;20.60;;;;;;;8.14;82.50;96276.19;1746129;82;21080;-78
2022/11/10 09:18:19;;;;;;;25.83;15.60;;;;;;;8.23;82.29;96277.08;1746564;82;21064;-71
2022/11/10 09:21:10;;;;;;;21.20;14.60;;;;;;;8.27;81.54;96279.30;1746778;82;21552;-70
2022/11/10 09:23:51;;;;;;;23.17;14.90;;;;;;;8.17;80.19;96282.34;1746107;82;21152;-71
2022/11/10 09:26:38;;;;;;;25.70;14.65;;;;;;;8.12;80.50;96277.96;1746422;82;21072;-73
2022/11/10 09:29:24;;;;;;;23.87;14.10;;;;;;;8.11;80.80;96284.94;1746061;82;21062;-72
2022/11/10 09:32:09;;;;;;;25.63;14.70;;;;;;;8.12;80.71;96278.83;1747279;82;21060;-73
2022/11/10 09:34:54;;;;;;;20.17;13.33;;;;;;;8.12;80.64;96284.09;1747175;82;21008;-73
2022/11/10 09:37:39;;;;;;;18.70;12.03;;;;;;;8.12;80.77;96299.86;1747031;82;21511;-71
2022/11/10 09:40:51;;;;;;;24.90;14.03;;;;;;;8.13;80.60;96291.53;1746411;82;21081;-71
2022/11/10 09:43:47;;;;;;;27.67;16.60;;;;;;;8.08;80.49;96294.59;1746056;82;21099;-69
2022/11/10 09:46:36;;;;;;;37.83;19.25;;;;;;;8.07;80.77;96301.60;1747772;82;21033;-67
2022/11/10 09:49:38;;;;;;;37.40;22.27;;;;;;;8.08;81.03;96295.90;1750877;82;21149;-68
2022/11/10 09:52:26;;;;;;;39.67;23.43;;;;;;;8.08;80.91;96284.08;1754121;81;21080;-67
2022/11/10 09:55:48;;;;;;;35.30;22.70;;;;;;;8.05;80.69;96291.95;1754767;82;21075;-72
2022/11/10 09:58:38;;;;;;;28.33;17.00;;;;;;;8.05;80.77;96291.95;1754503;81;21617;-67
2022/11/10 10:01:56;;;;;;;23.70;15.10;;;;;;;8.10;80.91;96292.84;1753159;81;21184;-66
2022/11/10 10:05:05;;;;;;;22.90;14.50;;;;;;;8.16;80.94;96288.45;1753658;81;21129;-67
2022/11/10 10:08:11;;;;;;;21.47;13.47;;;;;;;8.21;80.75;96292.00;1755024;81;20999;-68
2022/11/10 10:11:46;;;;;;;20.13;12.60;;;;;;;8.28;80.56;96295.50;1755361;82;21017;-68
2022/11/10 10:14:51;;;;;;;16.23;10.80;;;;;;;8.31;80.21;96295.94;1755944;81;21124;-67
2022/11/10 10:17:41;;;;;;;19.40;11.78;;;;;;;8.31;79.91;96298.56;1757019;81;21117;-66
2022/11/10 10:20:46;;;;;;;19.82;11.78;;;;;;;8.34;79.73;96293.31;1757022;81;21017;-66
2022/11/10 10:23:39;;;;;;;17.50;10.97;;;;;;;8.41;79.95;96300.37;1755758;81;21091;-69
2022/11/10 10:26:31;;;;;;;23.63;13.90;;;;;;;8.45;80.17;96291.62;1756232;81;21566;-67
2022/11/10 10:29:33;;;;;;;24.27;13.55;;;;;;;8.50;79.41;96291.63;1756161;82;21008;-67
2022/11/10 10:32:24;;;;;;;18.25;10.43;;;;;;;8.54;79.95;96293.36;1756720;81;21005;-67
2022/11/10 10:35:14;;;;;;;20.10;11.60;;;;;;;8.70;80.21;96295.14;1756613;81;21366;-67
2022/11/10 10:38:01;;;;;;;15.28;9.85;;;;;;;8.79;79.84;96283.72;1757140;81;21503;-67
2022/11/10 10:40:50;;;;;;;14.98;9.23;;;;;;;8.87;79.73;96280.67;1756646;82;21029;-66
2022/11/10 10:43:35;;;;;;;15.05;9.55;;;;;;;8.98;80.25;96272.30;1757130;82;21017;-67
2022/11/10 10:46:27;;;;;;;27.67;16.95;;;;;;;9.13;80.21;96272.72;1757136;82;21021;-67
2022/11/10 10:49:19;;;;;;;27.13;18.92;;;;;;;9.35;80.55;96281.45;1757365;81;21117;-67
2022/11/10 10:52:11;;;;;;;27.45;20.15;;;;;;;9.41;79.14;96273.96;1757070;81;21448;-67
2022/11/10 10:55:06;;;;;;;25.32;14.70;;;;;;;9.47;78.89;96275.25;1757073;81;21009;-67
2022/11/10 10:57:58;;;;;;;14.93;9.73;;;;;;;9.50;78.62;96284.48;1757150;81;21039;-67
2022/11/10 11:00:46;;;;;;;14.00;10.25;;;;;;;9.52;78.75;96283.59;1756822;81;21013;-67
2022/11/10 11:03:42;;;;;;;21.70;15.50;;;;;;;9.42;77.90;96287.55;1757037;81;21467;-67
2022/11/10 11:06:33;;;;;;;22.07;15.43;;;;;;;9.43;78.43;96293.28;1756881;82;21025;-67
2022/11/10 11:09:41;;;;;;;24.70;13.60;;;;;;;9.40;78.42;96291.95;1757064;81;21014;-67
2022/11/10 11:12:32;;;;;;;19.12;11.18;;;;;;;9.46;78.80;96296.77;1756924;82;21033;-67
2022/11/10 11:15:29;;;;;;;49.58;27.60;;;;;;;9.52;78.82;96301.13;1757201;82;21014;-68
2022/11/10 11:18:17;;;;;;;29.50;17.42;;;;;;;9.55;78.87;96303.78;1757032;82;21002;-68
2022/11/10 11:21:36;;;;;;;13.25;9.15;;;;;;;9.58;78.52;96306.40;1757357;81;21040;-68
2022/11/10 11:24:54;;;;;;;10.25;7.22;;;;;;;9.48;78.39;96312.13;1756993;82;20974;-68
2022/11/10 11:28:24;;;;;;;9.20;7.67;;;;;;;9.28;77.87;96309.99;1757104;82;21531;-68
2022/11/10 11:31:44;;;;;;;10.15;8.08;;;;;;;9.13;78.12;96312.66;1756962;82;21017;-68
2022/11/10 11:34:43;;;;;;;10.65;7.65;;;;;;;8.98;78.48;96305.20;1738823;81;21554;-68
2022/11/10 11:37:48;;;;;;;11.65;8.08;;;;;;;8.89;78.73;96309.15;1716115;81;21028;-68
2022/11/10 11:40:45;;;;;;;11.43;8.43;;;;;;;8.80;78.92;96319.70;1757232;82;21551;-69
2022/11/10 11:43:56;;;;;;;11.00;7.95;;;;;;;8.69;79.21;96318.36;1756922;82;21052;-69
2022/11/10 11:47:20;;;;;;;10.25;7.60;;;;;;;8.62;79.56;96325.39;1757182;82;20997;-68
2022/11/10 11:50:28;;;;;;;10.75;8.10;;;;;;;8.61;79.89;96316.17;1752580;81;21164;-68
2022/11/10 11:53:36;;;;;;;11.60;7.85;;;;;;;8.74;80.26;96319.68;1748980;82;21492;-68
2022/11/10 11:56:36;;;;;;;9.13;7.70;;;;;;;9.12;81.72;96314.83;1748956;82;21093;-69
2022/11/10 11:59:38;;;;;;;20.25;10.15;;;;;;;9.89;80.01;96321.64;1745161;82;21492;-68
2022/11/10 12:02:52;;;;;;;14.23;9.03;;;;;;;11.06;79.70;96303.73;1749073;82;21053;-68
2022/11/10 12:06:08;;;;;;;13.80;9.10;;;;;;;12.23;76.68;96297.17;1749123;82;20966;-68
2022/11/10 12:09:16;;;;;;;11.50;8.10;;;;;;;13.44;70.14;96289.07;1749181;82;21540;-68
2022/11/10 12:12:35;;;;;;;10.93;8.55;;;;;;;14.06;64.20;96286.92;1748996;82;21006;-68
2022/11/10 12:15:44;;;;;;;11.25;8.95;;;;;;;13.69;64.15;96292.13;1748961;82;21086;-68
2022/11/10 12:18:45;;;;;;;14.93;9.98;;;;;;;13.25;64.21;96290.68;1748186;82;21065;-68
2022/11/10 12:21:51;;;;;;;25.50;13.62;;;;;;;13.31;66.12;96295.92;1748972;82;21014;-68
2022/11/10 12:24:50;;;;;;;16.97;11.15;;;;;;;13.10;64.62;96296.25;1740402;82;21037;-69
2022/11/10 12:27:41;;;;;;;26.75;14.63;;;;;;;12.90;65.56;96297.91;1748857;82;21057;-68
2022/11/10 12:30:28;;;;;;;14.87;10.13;;;;;;;12.85;66.51;96307.28;1749215;82;21556;-69
2022/11/10 12:33:44;;;;;;;18.60;11.95;;;;;;;12.71;66.74;96302.64;1748903;82;21009;-69
2022/11/10 12:36:31;;;;;;;15.08;10.13;;;;;;;12.54;66.76;96300.23;1749202;82;21010;-68
2022/11/10 12:39:24;;;;;;;13.00;9.25;;;;;;;12.39;67.34;96307.08;1748921;82;21077;-68
2022/11/10 12:42:20;;;;;;;16.27;9.93;;;;;;;12.32;67.61;96302.31;1749238;82;21045;-68
2022/11/10 12:45:11;;;;;;;14.35;9.00;;;;;;;12.32;67.00;96295.28;1748955;82;21443;-68
2022/11/10 12:47:58;;;;;;;11.40;8.15;;;;;;;12.62;67.12;96300.12;1749199;82;21056;-68
2022/11/10 12:51:00;;;;;;;12.80;8.95;;;;;;;12.80;65.87;96299.86;1754245;81;21051;-68
2022/11/10 12:53:47;;;;;;;12.65;7.47;;;;;;;13.41;65.02;96290.88;1757076;82;21009;-68
2022/11/10 12:56:46;;;;;;;9.55;7.03;;;;;;;13.61;63.95;96296.26;1756869;82;21017;-68
2022/11/10 12:59:34;;;;;;;9.70;7.58;;;;;;;13.84;61.90;96305.08;1757179;82;21467;-68
2022/11/10 13:02:39;;;;;;;8.25;6.80;;;;;;;13.85;62.36;96302.38;1756987;82;21060;-68
2022/11/10 13:05:39;;;;;;;9.78;7.20;;;;;;;13.80;61.28;96302.06;1757249;82;21001;-68
2022/11/10 13:08:44;;;;;;;10.18;7.28;;;;;;;13.26;61.55;96309.67;1756734;82;20989;-68
2022/11/10 13:11:35;;;;;;;9.75;7.12;;;;;;;12.80;62.03;96316.17;1756660;82;21015;-69
2022/11/10 13:14:24;;;;;;;10.32;7.83;;;;;;;12.41;63.37;96315.42;1756902;81;21478;-69
2022/11/10 13:17:20;;;;;;;12.95;7.87;;;;;;;12.07;64.35;96321.61;1756941;82;21509;-69
2022/11/10 13:20:11;;;;;;;13.13;8.15;;;;;;;11.75;65.43;96331.25;1756627;81;21058;-68
2022/11/10 13:22:56;;;;;;;13.98;8.53;;;;;;;11.52;66.04;96338.11;1756943;82;21505;-68
2022/11/10 13:25:54;;;;;;;11.15;7.97;;;;;;;11.33;66.61;96337.40;1756955;82;21011;-68
2022/11/10 13:28:55;;;;;;;14.10;8.55;;;;;;;11.17;67.04;96340.19;1756610;82;21068;-68